Time;durP1;ratioP1;P1;durP2;ratioP2;P2;SDS_P1;SDS_P2;PMS_P1;PMS_P2;Temp;Humidity;BMP_temperature;BMP_pressure;BME280_temperature;BME280_humidity;BME280_pressure;Samples;Min_cycle;Max_cycle;Signal;HPM_P1;HPM_P2
2022/09/21 00:02:14;;;;;;;15.02;9.27;;;6.10;99.90;;;;;;5094076;28;20028;-78
2022/09/21 00:04:39;;;;;;;16.55;10.32;;;6.10;99.90;;;;;;5094035;28;20154;-79
2022/09/21 00:07:05;;;;;;;15.13;9.38;;;6.00;99.90;;;;;;5092491;28;20022;-78
2022/09/21 00:09:30;;;;;;;15.63;8.82;;;6.00;99.90;;;;;;5081643;28;20525;-77
2022/09/21 00:11:56;;;;;;;15.25;8.93;;;6.00;99.90;;;;;;5072321;28;20028;-78
2022/09/21 00:14:21;;;;;;;12.88;8.10;;;6.00;99.90;;;;;;5073581;28;20021;-78
2022/09/21 00:16:47;;;;;;;14.75;8.98;;;6.00;99.90;;;;;;5072184;28;20024;-77
2022/09/21 00:19:15;;;;;;;16.38;8.82;;;5.90;99.90;;;;;;5071476;28;20032;-77
2022/09/21 00:21:41;;;;;;;16.55;8.27;;;5.90;99.90;;;;;;5072172;28;20020;-78
2022/09/21 00:24:07;;;;;;;16.02;8.88;;;5.90;99.90;;;;;;5072182;28;20025;-77
2022/09/21 00:26:33;;;;;;;13.02;6.95;;;5.90;99.90;;;;;;5073367;28;20103;-78
2022/09/21 00:29:00;;;;;;;13.63;7.57;;;5.80;99.90;;;;;;5071973;28;20056;-78
2022/09/21 00:31:27;;;;;;;10.82;6.45;;;5.80;99.90;;;;;;5073524;28;20044;-78
2022/09/21 00:33:53;;;;;;;12.10;6.93;;;5.80;99.90;;;;;;5071987;28;20051;-78
2022/09/21 00:36:21;;;;;;;9.57;7.03;;;5.80;99.90;;;;;;5072104;28;20023;-78
2022/09/21 00:38:56;;;;;;;10.73;6.60;;;5.80;99.90;;;;;;5071948;28;20394;-78
2022/09/21 00:41:23;;;;;;;8.63;5.80;;;5.80;99.90;;;;;;5088152;28;20036;-77
2022/09/21 00:44:15;;;;;;;10.98;7.72;;;5.80;99.90;;;;;;5093473;28;20448;-78
2022/09/21 00:46:41;;;;;;;10.07;5.65;;;5.80;99.90;;;;;;5093375;28;20405;-78
2022/09/21 00:49:07;;;;;;;9.23;7.03;;;5.80;99.90;;;;;;5093136;28;20028;-77
2022/09/21 00:51:34;;;;;;;12.18;7.03;;;5.80;99.90;;;;;;5092118;28;20024;-77
2022/09/21 00:54:07;;;;;;;9.25;6.20;;;5.80;99.90;;;;;;5091789;28;20074;-78
2022/09/21 00:56:35;;;;;;;9.05;5.95;;;5.80;99.90;;;;;;5093354;28;20435;-77
2022/09/21 00:59:02;;;;;;;12.68;7.63;;;5.80;99.90;;;;;;5092029;28;20073;-79
2022/09/21 01:01:28;;;;;;;16.42;8.48;;;5.80;99.90;;;;;;5091960;28;20032;-77
2022/09/21 01:03:56;;;;;;;12.02;7.68;;;5.80;99.90;;;;;;5091752;28;20027;-77
2022/09/21 01:06:22;;;;;;;11.85;8.27;;;5.80;99.90;;;;;;5093164;28;20020;-78
2022/09/21 01:08:54;;;;;;;10.75;7.45;;;5.90;99.90;;;;;;5085018;28;20029;-77
2022/09/21 01:11:48;;;;;;;13.82;9.20;;;5.90;99.90;;;;;;5072971;28;20017;-79
2022/09/21 01:14:16;;;;;;;;;;;5.90;99.90;;;;;;5073232;28;20033;-78
2022/09/21 01:17:01;;;;;;;17.05;9.38;;;5.90;99.90;;;;;;5071574;28;20366;-79
2022/09/21 01:20:15;;;;;;;15.02;8.90;;;5.90;99.90;;;;;;5071304;28;20390;-78
2022/09/21 01:22:46;;;;;;;13.23;7.85;;;5.90;99.90;;;;;;5030596;28;20578;-78
2022/09/21 01:25:32;;;;;;;11.23;7.97;;;5.90;99.90;;;;;;5014000;28;20083;-79
2022/09/21 01:28:16;;;;;;;13.60;8.43;;;5.90;99.90;;;;;;5054197;28;20359;-77
2022/09/21 01:30:43;;;;;;;11.60;7.45;;;6.00;99.90;;;;;;5075285;28;20083;-77
2022/09/21 01:33:32;;;;;;;14.60;8.27;;;6.00;99.90;;;;;;5076482;28;20017;-77
2022/09/21 01:36:08;;;;;;;15.38;8.77;;;6.00;99.90;;;;;;5076765;28;20488;-78
2022/09/21 01:38:44;;;;;;;17.38;10.32;;;6.10;99.90;;;;;;5075218;28;20021;-77
2022/09/21 01:41:13;;;;;;;19.23;10.60;;;6.10;99.90;;;;;;5088561;28;20620;-78
2022/09/21 01:43:48;;;;;;;22.52;11.43;;;6.10;99.90;;;;;;5096535;28;20024;-78
2022/09/21 01:46:19;;;;;;;27.05;12.52;;;6.10;99.90;;;;;;5095477;28;20424;-78
2022/09/21 01:48:54;;;;;;;20.98;11.32;;;6.10;99.90;;;;;;5095141;28;20012;-77
2022/09/21 01:51:21;;;;;;;20.40;12.32;;;6.20;99.90;;;;;;5096882;28;20020;-77
2022/09/21 01:53:52;;;;;;;19.15;11.38;;;6.10;99.90;;;;;;5095030;28;20554;-78
2022/09/21 01:56:34;;;;;;;23.30;12.15;;;6.20;99.90;;;;;;5095260;28;20024;-78
2022/09/21 01:59:21;;;;;;;21.47;12.13;;;6.20;99.90;;;;;;5096241;28;20020;-77
2022/09/21 02:01:54;;;;;;;19.90;11.82;;;6.30;99.90;;;;;;5096449;28;20024;-78
2022/09/21 02:04:20;;;;;;;21.63;12.85;;;6.30;99.90;;;;;;5095016;28;20050;-77
2022/09/21 02:06:47;;;;;;;22.95;13.93;;;6.30;99.90;;;;;;5095129;28;20055;-78
2022/09/21 02:09:13;;;;;;;24.85;13.63;;;6.30;99.90;;;;;;5085375;28;20036;-78
2022/09/21 02:11:42;;;;;;;22.58;14.32;;;6.30;99.90;;;;;;5075888;28;20031;-78
2022/09/21 02:14:15;;;;;;;27.13;14.70;;;6.40;99.90;;;;;;5074438;28;20115;-78
2022/09/21 02:17:04;;;;;;;25.90;14.55;;;6.40;99.90;;;;;;5074560;28;20032;-78
2022/09/21 02:19:54;;;;;;;25.67;15.23;;;6.40;99.90;;;;;;5074422;28;20494;-77
2022/09/21 02:22:39;;;;;;;27.05;16.00;;;6.40;99.90;;;;;;5075826;28;20032;-77
2022/09/21 02:25:18;;;;;;;24.42;14.48;;;6.50;99.90;;;;;;5074319;28;20036;-78
2022/09/21 02:27:53;;;;;;;24.80;15.43;;;6.50;99.90;;;;;;5075882;28;20024;-77
2022/09/21 02:30:21;;;;;;;23.73;15.75;;;6.50;99.90;;;;;;5075734;28;20025;-77
2022/09/21 02:32:59;;;;;;;32.83;17.60;;;6.60;99.90;;;;;;5075645;28;20248;-78
2022/09/21 02:35:35;;;;;;;26.08;15.07;;;6.60;99.90;;;;;;5075434;28;20020;-78
2022/09/21 02:38:21;;;;;;;29.05;16.02;;;6.60;99.90;;;;;;5074224;28;20021;-77
2022/09/21 02:41:05;;;;;;;29.08;17.75;;;6.60;99.90;;;;;;5084007;28;20039;-78
2022/09/21 02:43:59;;;;;;;30.25;16.30;;;6.60;99.90;;;;;;5095641;28;20520;-77
2022/09/21 02:46:31;;;;;;;32.72;17.70;;;6.60;99.90;;;;;;5095285;28;20123;-77
2022/09/21 02:49:09;;;;;;;37.30;18.10;;;6.60;99.90;;;;;;5094084;28;20582;-77
2022/09/21 02:51:48;;;;;;;36.35;20.35;;;6.60;99.90;;;;;;5095459;28;20031;-78
2022/09/21 02:54:19;;;;;;;41.33;20.23;;;6.50;99.90;;;;;;5094289;28;20393;-77
2022/09/21 02:56:47;;;;;;;37.85;19.67;;;6.50;99.90;;;;;;5094005;28;20123;-77
2022/09/21 02:59:15;;;;;;;39.78;18.80;;;6.50;99.90;;;;;;5110809;28;20097;-78
2022/09/21 03:01:42;;;;;;;41.60;20.60;;;6.50;99.90;;;;;;5094040;28;20024;-77
2022/09/21 03:04:08;;;;;;;40.80;22.65;;;6.40;99.90;;;;;;5094984;28;20027;-78
2022/09/21 03:06:34;;;;;;;40.50;21.25;;;6.40;99.90;;;;;;5095136;28;20150;-78
2022/09/21 03:09:00;;;;;;;39.38;19.88;;;6.40;99.90;;;;;;5093538;28;20099;-77
2022/09/21 03:11:25;;;;;;;46.88;22.67;;;6.40;99.90;;;;;;5093717;28;20024;-78
2022/09/21 03:13:51;;;;;;;39.38;20.45;;;6.40;99.90;;;;;;5093674;28;20028;-78
2022/09/21 03:16:17;;;;;;;41.40;20.00;;;6.40;99.90;;;;;;5094802;28;20027;-77
2022/09/21 03:18:43;;;;;;;45.38;20.42;;;6.40;99.90;;;;;;5094825;28;20055;-78
2022/09/21 03:21:10;;;;;;;38.58;21.15;;;6.40;99.90;;;;;;5093388;28;20512;-78
2022/09/21 03:23:35;;;;;;;45.15;23.08;;;6.40;99.90;;;;;;5093507;28;20043;-78
2022/09/21 03:26:01;;;;;;;43.00;21.73;;;6.40;99.90;;;;;;5094710;28;20469;-78
2022/09/21 03:28:27;;;;;;;52.55;22.80;;;6.40;99.90;;;;;;5094663;28;20047;-77
2022/09/21 03:30:52;;;;;;;49.10;21.88;;;6.40;99.90;;;;;;5094332;28;20055;-78
2022/09/21 03:33:20;;;;;;;47.65;23.00;;;6.40;99.90;;;;;;5094670;28;20027;-78
2022/09/21 03:35:50;;;;;;;54.30;24.38;;;6.40;99.90;;;;;;5094423;28;20048;-78
2022/09/21 03:38:17;;;;;;;54.13;22.92;;;6.30;99.90;;;;;;5092989;28;20437;-78
2022/09/21 03:40:46;;;;;;;47.45;21.60;;;6.30;99.90;;;;;;5082534;28;20028;-78
2022/09/21 03:43:13;;;;;;;55.95;23.20;;;6.30;99.90;;;;;;5074088;28;20035;-78
2022/09/21 03:45:39;;;;;;;52.72;24.67;;;6.30;99.90;;;;;;5072719;28;20448;-78
2022/09/21 03:48:05;;;;;;;55.40;22.65;;;6.30;99.90;;;;;;5074047;28;20025;-77
2022/09/21 03:50:31;;;;;;;49.03;22.33;;;6.30;99.90;;;;;;5072580;28;20078;-78
2022/09/21 03:52:57;;;;;;;56.15;23.50;;;6.30;99.90;;;;;;5072922;28;20036;-77
2022/09/21 03:55:23;;;;;;;55.70;22.83;;;6.30;99.90;;;;;;5072506;28;20382;-78
2022/09/21 03:57:49;;;;;;;57.03;22.45;;;6.40;99.90;;;;;;5072586;28;20024;-77
2022/09/21 04:00:14;;;;;;;46.88;21.08;;;6.30;99.90;;;;;;5073726;28;20528;-78
2022/09/21 04:02:40;;;;;;;62.80;23.45;;;6.30;99.90;;;;;;5073735;28;20033;-78
2022/09/21 04:05:09;;;;;;;52.72;22.67;;;6.30;99.90;;;;;;5073504;28;20077;-77
2022/09/21 04:07:35;;;;;;;56.53;23.77;;;6.30;99.90;;;;;;5081547;28;20020;-77
2022/09/21 04:10:02;;;;;;;46.60;21.75;;;6.40;99.90;;;;;;5074538;28;20016;-78
2022/09/21 04:12:28;;;;;;;52.03;21.13;;;6.40;99.90;;;;;;5072272;28;20432;-78
2022/09/21 04:14:54;;;;;;;51.20;23.17;;;6.40;99.90;;;;;;5073235;28;20104;-77
2022/09/21 04:17:19;;;;;;;47.60;21.35;;;6.40;99.90;;;;;;5072153;28;20048;-77
2022/09/21 04:19:45;;;;;;;44.67;22.20;;;6.40;99.90;;;;;;5073287;28;20036;-77
2022/09/21 04:22:11;;;;;;;41.75;21.05;;;6.30;99.90;;;;;;5073356;28;20056;-78
2022/09/21 04:24:39;;;;;;;46.30;22.83;;;6.40;99.90;;;;;;5073355;28;20107;-77
2022/09/21 04:27:06;;;;;;;41.72;21.58;;;6.40;99.90;;;;;;5071926;28;20467;-78
2022/09/21 04:29:32;;;;;;;41.50;20.13;;;6.40;99.90;;;;;;5073426;28;20062;-78
2022/09/21 04:31:57;;;;;;;45.03;20.02;;;6.40;99.90;;;;;;5072926;28;20052;-77
2022/09/21 04:34:23;;;;;;;46.25;20.52;;;6.40;99.90;;;;;;5072017;28;20020;-77
2022/09/21 04:36:48;;;;;;;48.25;19.90;;;6.40;99.90;;;;;;5071890;28;20059;-78
2022/09/21 04:39:14;;;;;;;44.17;20.05;;;6.40;99.90;;;;;;5071818;28;20020;-78
2022/09/21 04:41:41;;;;;;;45.30;20.70;;;6.40;99.90;;;;;;5090451;28;20481;-78
2022/09/21 04:44:06;;;;;;;65.15;21.52;;;6.40;99.90;;;;;;5093377;28;20024;-78
2022/09/21 04:46:32;;;;;;;63.47;23.50;;;6.30;99.90;;;;;;5091960;28;20420;-80
2022/09/21 04:48:58;;;;;;;50.97;20.10;;;6.30;99.90;;;;;;5093166;28;20032;-77
2022/09/21 04:51:24;;;;;;;73.93;23.45;;;6.30;99.90;;;;;;5093126;28;20028;-78
2022/09/21 04:53:50;;;;;;;84.05;24.42;;;6.40;99.90;;;;;;5091896;28;20020;-78
2022/09/21 04:56:16;;;;;;;89.10;23.77;;;6.30;99.90;;;;;;5091829;28;20020;-78
2022/09/21 04:58:42;;;;;;;84.32;23.80;;;6.30;99.90;;;;;;5091710;28;20024;-78
2022/09/21 05:01:07;;;;;;;83.35;23.75;;;6.40;99.90;;;;;;5093081;28;20459;-78
2022/09/21 05:03:33;;;;;;;86.78;24.05;;;6.40;99.90;;;;;;5092987;28;20020;-77
2022/09/21 05:05:59;;;;;;;69.75;22.05;;;6.40;99.90;;;;;;5099759;28;20032;-78
2022/09/21 05:11:14;;;;;;;81.05;25.67;;;6.40;99.90;;;;;;5100105;28;20031;-78
2022/09/21 05:13:41;;;;;;;70.53;25.00;;;6.50;99.90;;;;;;5099665;28;20061;-77
2022/09/21 05:16:07;;;;;;;41.42;22.15;;;6.50;99.90;;;;;;5098369;28;20024;-77
2022/09/21 05:18:33;;;;;;;87.78;27.50;;;6.60;99.90;;;;;;5099590;28;20097;-79
2022/09/21 05:21:00;;;;;;;64.13;24.08;;;6.60;99.90;;;;;;5098450;28;20036;-78
2022/09/21 05:23:28;;;;;;;61.28;24.98;;;6.60;99.90;;;;;;5100133;28;20024;-77
2022/09/21 05:25:54;;;;;;;68.60;26.05;;;6.70;99.90;;;;;;5099384;28;20023;-78
2022/09/21 05:28:20;;;;;;;61.13;25.55;;;6.70;99.90;;;;;;5097874;28;20028;-77
2022/09/21 05:31:11;;;;;;;56.75;23.90;;;6.70;99.90;;;;;;5099358;28;20485;-78
2022/09/21 05:33:41;;;;;;;52.38;22.80;;;6.70;99.90;;;;;;5098446;28;20066;-77
2022/09/21 05:36:40;;;;;;;48.22;23.33;;;6.70;99.90;;;;;;5099992;28;20024;-78
2022/09/21 05:39:06;;;;;;;46.70;22.63;;;6.70;99.90;;;;;;5099439;28;20016;-78
2022/09/21 05:41:33;;;;;;;52.53;24.15;;;6.70;99.90;;;;;;5081359;28;20415;-77
2022/09/21 05:43:59;;;;;;;51.08;21.92;;;6.70;99.90;;;;;;5077880;28;20040;-78
2022/09/21 05:46:52;;;;;;;57.47;23.73;;;6.70;99.90;;;;;;5079182;28;20099;-78
2022/09/21 05:49:19;;;;;;;46.25;20.52;;;6.70;99.90;;;;;;5079160;28;20047;-78
2022/09/21 05:51:52;;;;;;;45.20;21.38;;;6.70;99.90;;;;;;5099186;28;20028;-77
2022/09/21 05:54:48;;;;;;;53.65;22.85;;;6.70;99.90;;;;;;5095069;28;20038;-77
2022/09/21 05:57:24;;;;;;;57.00;22.65;;;6.70;99.90;;;;;;5096565;28;20016;-77
2022/09/21 06:00:03;;;;;;;54.40;21.80;;;6.70;99.90;;;;;;5095606;28;20128;-77
2022/09/21 06:02:43;;;;;;;48.83;22.02;;;6.80;99.90;;;;;;5096301;28;20026;-77
2022/09/21 06:05:14;;;;;;;47.85;21.42;;;6.80;99.90;;;;;;5097884;28;20015;-77
2022/09/21 06:07:40;;;;;;;42.50;19.65;;;6.80;99.90;;;;;;5097494;28;20012;-77
2022/09/21 06:10:07;;;;;;;41.45;18.85;;;6.80;99.90;;;;;;5099414;28;20031;-78
2022/09/21 06:12:33;;;;;;;44.30;19.02;;;6.80;99.90;;;;;;5097059;28;20023;-77
2022/09/21 06:14:59;;;;;;;42.85;18.73;;;6.80;99.90;;;;;;5096799;28;20473;-76
2022/09/21 06:17:26;;;;;;;42.47;20.00;;;6.80;99.90;;;;;;5093854;28;20478;-78
2022/09/21 06:19:52;;;;;;;43.50;19.88;;;6.80;99.90;;;;;;5094784;28;20130;-77
2022/09/21 06:22:18;;;;;;;39.22;18.25;;;6.90;99.90;;;;;;5095807;28;20024;-78
2022/09/21 06:24:44;;;;;;;40.85;19.13;;;6.90;99.90;;;;;;5094301;28;20520;-76
2022/09/21 06:27:09;;;;;;;39.53;18.05;;;7.00;99.90;;;;;;5075261;28;20390;-76
2022/09/21 06:29:35;;;;;;;41.58;18.98;;;7.00;99.90;;;;;;5073798;28;20135;-77
2022/09/21 06:32:02;;;;;;;44.63;19.55;;;7.00;99.90;;;;;;5072822;28;20136;-77
2022/09/21 06:34:28;;;;;;;41.50;18.77;;;7.00;99.90;;;;;;5074064;28;20034;-77
2022/09/21 06:36:54;;;;;;;40.30;17.88;;;7.00;99.90;;;;;;5074314;28;20100;-78
2022/09/21 06:39:19;;;;;;;38.95;19.73;;;7.10;99.90;;;;;;5076235;28;20024;-78
2022/09/21 06:41:45;;;;;;;39.70;18.60;;;7.00;99.90;;;;;;5074124;28;20023;-78
2022/09/21 06:44:11;;;;;;;38.08;17.15;;;7.10;99.90;;;;;;5087548;28;20016;-77
2022/09/21 06:46:36;;;;;;;37.78;17.35;;;7.10;99.90;;;;;;5093472;28;20036;-78
2022/09/21 06:49:02;;;;;;;38.88;17.75;;;7.10;99.90;;;;;;5093086;28;20523;-78
2022/09/21 06:51:27;;;;;;;29.77;16.67;;;7.10;99.90;;;;;;5090548;28;20028;-78
2022/09/21 06:53:55;;;;;;;34.30;16.08;;;7.10;99.90;;;;;;5072608;28;20159;-78
2022/09/21 06:56:21;;;;;;;35.22;17.42;;;7.10;99.90;;;;;;5075218;28;20020;-77
2022/09/21 06:58:47;;;;;;;38.13;17.70;;;7.10;99.90;;;;;;5073864;28;20458;-77
2022/09/21 07:01:13;;;;;;;40.65;17.25;;;7.20;99.90;;;;;;5073652;28;20047;-77
2022/09/21 07:03:41;;;;;;;34.50;16.88;;;7.10;99.90;;;;;;5073550;28;20016;-77
2022/09/21 07:06:10;;;;;;;37.08;18.27;;;7.20;99.90;;;;;;5089776;28;20021;-78
2022/09/21 07:08:35;;;;;;;37.72;17.05;;;7.30;99.90;;;;;;5081680;28;20024;-78
2022/09/21 07:11:04;;;;;;;34.22;18.30;;;7.30;99.90;;;;;;5095273;28;20020;-78
2022/09/21 07:13:29;;;;;;;34.08;15.80;;;7.50;99.90;;;;;;5094890;28;20016;-77
2022/09/21 07:15:55;;;;;;;35.28;17.17;;;7.50;99.90;;;;;;5094600;28;20091;-78
2022/09/21 07:18:21;;;;;;;33.00;17.73;;;7.50;99.90;;;;;;5093604;28;20035;-79
2022/09/21 07:20:48;;;;;;;29.30;15.88;;;7.60;99.90;;;;;;5093515;28;20036;-77
2022/09/21 07:23:16;;;;;;;31.30;15.75;;;7.60;99.90;;;;;;5095092;28;20447;-77
2022/09/21 07:25:44;;;;;;;26.10;14.15;;;7.60;99.90;;;;;;5093862;28;20035;-78
2022/09/21 07:28:11;;;;;;;24.45;13.57;;;7.60;99.90;;;;;;5093346;28;20477;-77
2022/09/21 07:30:38;;;;;;;29.42;14.80;;;7.70;99.90;;;;;;5094750;28;20028;-79
2022/09/21 07:33:05;;;;;;;26.35;14.40;;;7.70;99.90;;;;;;5094800;28;20103;-79
2022/09/21 07:35:31;;;;;;;23.92;13.27;;;7.80;99.90;;;;;;5094807;28;20024;-77
2022/09/21 07:37:58;;;;;;;28.05;13.90;;;7.80;99.90;;;;;;5093484;28;20048;-79
2022/09/21 07:40:24;;;;;;;24.20;13.23;;;7.80;99.90;;;;;;5084225;28;20482;-78
2022/09/21 07:42:50;;;;;;;19.15;10.75;;;7.80;99.90;;;;;;5074576;28;20017;-78
2022/09/21 07:45:15;;;;;;;17.35;9.95;;;7.80;99.90;;;;;;5073045;28;20055;-78
2022/09/21 07:47:41;;;;;;;26.58;14.63;;;7.80;99.90;;;;;;5074332;28;20012;-78
2022/09/21 07:50:07;;;;;;;21.77;13.23;;;7.80;99.90;;;;;;5074013;28;20032;-77
2022/09/21 07:52:33;;;;;;;19.10;10.98;;;7.80;99.90;;;;;;5073264;28;20031;-79
2022/09/21 07:54:59;;;;;;;17.25;9.60;;;7.80;99.90;;;;;;5072742;28;20474;-77
2022/09/21 08:00:10;;;;;;;11.60;8.27;;;7.90;99.90;;;;;;5074139;28;20044;-79
2022/09/21 08:02:36;;;;;;;9.57;6.95;;;8.00;99.90;;;;;;5072824;28;20033;-79
2022/09/21 08:05:02;;;;;;;10.98;6.50;;;8.00;99.90;;;;;;5074045;28;20052;-78
2022/09/21 08:07:28;;;;;;;12.98;7.03;;;8.10;99.90;;;;;;5072521;28;20032;-77
2022/09/21 08:09:53;;;;;;;11.38;6.95;;;8.20;99.90;;;;;;5090531;28;20047;-77
2022/09/21 08:12:20;;;;;;;11.63;7.05;;;8.30;99.90;;;;;;5092900;28;20028;-79
2022/09/21 08:14:46;;;;;;;9.93;6.65;;;8.30;99.90;;;;;;5094082;28;20024;-76
2022/09/21 08:17:13;;;;;;;9.18;5.32;;;8.40;99.90;;;;;;5093057;28;20042;-78
2022/09/21 08:19:38;;;;;;;7.82;6.13;;;8.30;99.90;;;;;;5092474;28;20032;-79
2022/09/21 08:22:05;;;;;;;10.80;6.22;;;8.30;99.90;;;;;;5093920;28;20024;-78
2022/09/21 08:24:31;;;;;;;7.88;6.20;;;8.40;99.90;;;;;;5092602;28;20085;-77
2022/09/21 08:26:58;;;;;;;7.93;6.35;;;8.50;99.90;;;;;;5092515;28;20024;-77
2022/09/21 08:29:24;;;;;;;7.78;5.30;;;8.50;99.90;;;;;;5093672;28;20024;-77
2022/09/21 08:31:51;;;;;;;8.77;5.75;;;8.60;99.90;;;;;;5093611;28;20491;-77
2022/09/21 08:34:18;;;;;;;8.27;6.28;;;8.60;99.90;;;;;;5093578;28;20024;-79
2022/09/21 08:36:44;;;;;;;7.85;4.93;;;8.70;99.90;;;;;;5092493;28;20038;-77
2022/09/21 08:39:10;;;;;;;7.18;5.28;;;8.60;99.90;;;;;;5092932;28;20028;-78
2022/09/21 08:41:57;;;;;;;6.93;6.20;;;8.60;99.90;;;;;;5073952;28;20075;-78
2022/09/21 08:44:31;;;;;;;7.80;5.78;;;8.50;99.90;;;;;;5072268;28;20056;-77
2022/09/21 08:47:09;;;;;;;6.75;5.25;;;8.40;99.90;;;;;;5073374;28;20048;-77
2022/09/21 08:49:36;;;;;;;9.05;6.63;;;8.40;99.90;;;;;;5073052;28;20103;-77
2022/09/21 08:52:06;;;;;;;8.18;5.95;;;8.40;99.90;;;;;;5071860;28;20078;-78
2022/09/21 08:54:44;;;;;;;10.75;6.43;;;8.40;99.90;;;;;;5071996;28;20024;-78
2022/09/21 08:57:12;;;;;;;13.65;7.45;;;8.40;99.90;;;;;;5092344;28;20027;-77
2022/09/21 08:59:45;;;;;;;11.05;7.57;;;8.40;99.90;;;;;;5091980;28;20573;-77
2022/09/21 09:02:41;;;;;;;12.63;7.75;;;8.40;99.90;;;;;;5093347;28;20362;-77
2022/09/21 09:05:37;;;;;;;13.82;7.22;;;8.40;99.90;;;;;;5091883;28;20028;-77
2022/09/21 09:08:26;;;;;;;11.32;8.82;;;8.40;99.90;;;;;;5092123;28;20111;-79
2022/09/21 09:11:00;;;;;;;12.40;8.30;;;8.40;99.90;;;;;;5092033;28;20430;-79
2022/09/21 09:13:45;;;;;;;10.13;7.30;;;8.40;99.90;;;;;;5091876;28;20020;-77
2022/09/21 09:16:22;;;;;;;8.95;6.50;;;8.40;99.90;;;;;;5093151;28;20086;-77
2022/09/21 09:18:53;;;;;;;15.73;8.73;;;8.40;99.90;;;;;;5091695;28;20048;-78
2022/09/21 09:21:33;;;;;;;12.35;8.52;;;8.50;99.90;;;;;;5092978;28;20477;-79
2022/09/21 09:24:11;;;;;;;12.00;8.15;;;8.50;99.90;;;;;;5091955;28;20107;-79
2022/09/21 09:26:54;;;;;;;17.40;11.07;;;8.60;99.90;;;;;;5093109;28;20065;-79
2022/09/21 09:30:06;;;;;;;13.82;8.80;;;8.60;99.90;;;;;;5093153;28;20111;-77
2022/09/21 09:32:46;;;;;;;13.18;9.65;;;8.60;99.90;;;;;;5065962;28;20044;-77
2022/09/21 09:35:20;;;;;;;13.45;9.32;;;8.70;99.90;;;;;;5092942;28;20013;-78
2022/09/21 09:37:47;;;;;;;14.13;10.00;;;8.70;99.90;;;;;;5093022;28;20073;-79
2022/09/21 09:40:13;;;;;;;16.30;10.27;;;8.60;99.90;;;;;;5084551;28;20099;-79
2022/09/21 09:43:07;;;;;;;18.80;11.02;;;8.60;99.90;;;;;;5078527;28;20024;-77
2022/09/21 09:46:09;;;;;;;18.40;12.48;;;8.80;99.90;;;;;;5089803;28;20028;-78
2022/09/21 09:48:57;;;;;;;20.90;11.13;;;8.80;99.90;;;;;;5092155;28;20023;-78
2022/09/21 09:51:22;;;;;;;20.42;11.18;;;8.90;99.90;;;;;;5093205;28;20032;-78
2022/09/21 09:53:48;;;;;;;20.55;11.73;;;8.90;99.90;;;;;;5095525;28;20024;-78
2022/09/21 09:56:16;;;;;;;17.35;11.00;;;8.90;99.90;;;;;;5095443;28;20393;-78
2022/09/21 09:58:59;;;;;;;21.73;13.15;;;9.00;99.90;;;;;;5112403;28;20012;-78
2022/09/21 10:01:39;;;;;;;20.15;11.93;;;8.90;99.90;;;;;;5112018;28;20036;-78
2022/09/21 10:04:09;;;;;;;24.20;13.63;;;9.00;99.90;;;;;;5095176;28;20024;-76
2022/09/21 10:06:36;;;;;;;23.77;15.70;;;9.00;99.90;;;;;;5096545;28;20056;-78
2022/09/21 10:09:33;;;;;;;25.80;15.50;;;9.00;99.90;;;;;;5112272;28;20363;-77
2022/09/21 10:12:34;;;;;;;24.45;15.32;;;8.90;99.90;;;;;;5095103;28;20027;-77
2022/09/21 10:15:00;;;;;;;22.67;15.13;;;9.00;99.90;;;;;;5033917;28;20060;-79
2022/09/21 10:17:26;;;;;;;22.88;15.40;;;8.90;99.90;;;;;;5083458;28;20044;-77
2022/09/21 10:20:00;;;;;;;23.70;14.80;;;8.90;99.90;;;;;;5096159;28;20036;-77
2022/09/21 10:22:28;;;;;;;24.42;14.85;;;9.00;99.90;;;;;;5096106;28;20178;-77
2022/09/21 10:24:55;;;;;;;28.40;16.25;;;9.00;99.90;;;;;;5096044;28;20107;-77
2022/09/21 10:27:25;;;;;;;23.38;15.82;;;9.10;99.90;;;;;;5095752;28;20028;-77
2022/09/21 10:29:51;;;;;;;22.75;15.50;;;9.20;99.90;;;;;;5095984;28;20024;-77
2022/09/21 10:32:24;;;;;;;25.67;17.40;;;9.40;99.90;;;;;;5095778;28;20124;-77
2022/09/21 10:35:09;;;;;;;19.52;13.40;;;9.60;99.90;;;;;;5094626;28;20100;-77
2022/09/21 10:37:40;;;;;;;20.58;13.75;;;9.80;99.90;;;;;;5094509;28;20031;-79
2022/09/21 10:40:20;;;;;;;19.92;12.85;;;9.90;99.90;;;;;;5088176;28;20071;-77
2022/09/21 10:42:57;;;;;;;20.38;13.23;;;10.00;99.90;;;;;;5075392;28;20033;-79
2022/09/21 10:45:29;;;;;;;25.00;14.45;;;10.20;99.90;;;;;;5074021;28;20028;-77
2022/09/21 10:48:16;;;;;;;21.45;14.02;;;10.20;99.90;;;;;;5075340;28;20059;-77
2022/09/21 10:50:48;;;;;;;17.98;12.80;;;10.30;99.90;;;;;;5074965;28;20086;-77
2022/09/21 10:53:27;;;;;;;17.42;11.88;;;10.40;99.90;;;;;;5074037;28;20040;-77
2022/09/21 10:55:52;;;;;;;16.48;11.77;;;10.40;99.90;;;;;;5074040;28;20025;-77
2022/09/21 10:58:18;;;;;;;17.20;12.05;;;10.50;99.90;;;;;;5073820;28;20135;-79
2022/09/21 11:00:46;;;;;;;19.02;13.32;;;10.50;99.90;;;;;;5073784;28;20557;-79
2022/09/21 11:03:43;;;;;;;15.02;12.18;;;10.70;99.90;;;;;;5073336;28;20452;-79
2022/09/21 11:06:42;;;;;;;17.33;12.30;;;10.80;99.90;;;;;;5075141;28;20111;-77
2022/09/21 11:09:12;;;;;;;14.27;10.77;;;11.00;99.90;;;;;;5086318;28;20020;-79
2022/09/21 11:11:59;;;;;;;16.45;12.13;;;11.10;99.90;;;;;;5093850;28;20397;-79
2022/09/21 11:14:49;;;;;;;15.70;10.73;;;11.20;99.90;;;;;;5095152;28;20055;-79
2022/09/21 11:17:37;;;;;;;15.27;11.18;;;11.20;99.90;;;;;;5093619;28;20371;-79
2022/09/21 11:20:16;;;;;;;14.63;10.70;;;11.20;99.90;;;;;;5094847;28;20031;-79
2022/09/21 11:23:09;;;;;;;13.73;10.70;;;11.30;99.90;;;;;;5095000;28;20473;-79
2022/09/21 11:25:42;;;;;;;;;;;11.30;99.90;;;;;;5093880;28;20793;-77
2022/09/21 11:28:32;;;;;;;11.23;8.85;;;11.30;99.90;;;;;;5094746;28;19908;-77
2022/09/21 11:31:22;;;;;;;12.70;9.90;;;11.30;99.90;;;;;;5094703;28;20044;-79
2022/09/21 11:34:10;;;;;;;11.82;9.48;;;11.30;99.90;;;;;;5093318;28;20047;-79
2022/09/21 11:37:12;;;;;;;12.88;9.20;;;11.30;99.90;;;;;;5093446;28;20017;-79
2022/09/21 11:39:47;;;;;;;14.70;9.60;;;11.50;99.90;;;;;;5090354;28;20039;-79
2022/09/21 11:42:41;;;;;;;10.05;8.68;;;11.50;99.90;;;;;;5074342;28;20030;-77
2022/09/21 11:45:50;;;;;;;10.25;7.95;;;11.60;99.90;;;;;;5074414;28;20454;-76
2022/09/21 11:48:45;;;;;;;9.98;7.63;;;11.80;99.90;;;;;;5072859;28;20024;-79
2022/09/21 11:51:39;;;;;;;11.13;8.57;;;11.90;99.90;;;;;;5074199;28;20029;-79
2022/09/21 11:54:35;;;;;;;7.93;7.10;;;12.00;99.90;;;;;;5051496;28;20504;-79
2022/09/21 11:57:04;;;;;;;9.50;6.63;;;12.00;99.90;;;;;;5072717;28;20032;-76
2022/09/21 11:59:38;;;;;;;10.77;6.28;;;12.10;99.90;;;;;;5073826;28;20024;-76
2022/09/21 12:02:34;;;;;;;10.32;6.72;;;12.20;99.90;;;;;;5073999;28;20115;-79
2022/09/21 12:05:11;;;;;;;8.00;5.57;;;12.20;99.90;;;;;;5072545;28;20016;-76
2022/09/21 12:07:55;;;;;;;6.57;5.10;;;12.00;99.90;;;;;;5073924;28;20032;-79
2022/09/21 12:10:35;;;;;;;6.22;5.15;;;12.00;99.90;;;;;;5094086;28;20024;-79
2022/09/21 12:13:23;;;;;;;6.78;5.60;;;11.90;99.90;;;;;;5092175;28;20028;-79
2022/09/21 12:16:19;;;;;;;6.72;5.35;;;12.00;99.90;;;;;;5092734;28;20374;-79
2022/09/21 12:18:56;;;;;;;6.45;4.40;;;12.40;99.90;;;;;;5093794;28;20095;-79
2022/09/21 12:21:32;;;;;;;5.57;3.80;;;12.60;99.90;;;;;;5093626;28;20043;-76
2022/09/21 12:24:12;;;;;;;7.47;4.00;;;12.60;99.90;;;;;;5094110;28;20433;-76
2022/09/21 12:26:43;;;;;;;3.95;3.47;;;12.60;99.90;;;;;;5092044;28;20032;-76
2022/09/21 12:29:24;;;;;;;5.72;4.10;;;12.50;99.90;;;;;;5092460;28;20066;-76
2022/09/21 12:32:22;;;;;;;6.90;4.43;;;12.30;99.90;;;;;;5092474;28;20048;-73
2022/09/21 12:34:58;;;;;;;8.25;5.00;;;12.40;99.90;;;;;;5092703;28;20075;-74
2022/09/21 12:37:39;;;;;;;5.55;4.30;;;12.20;99.90;;;;;;5092269;28;20012;-76
2022/09/21 12:40:14;;;;;;;6.70;3.97;;;12.20;99.90;;;;;;5085497;28;20371;-76
2022/09/21 12:42:47;;;;;;;5.25;4.05;;;12.40;99.90;;;;;;5073470;28;20477;-77
2022/09/21 12:45:21;;;;;;;4.32;3.58;;;12.60;99.90;;;;;;5071953;28;20389;-76
2022/09/21 12:48:06;;;;;;;4.38;3.35;;;12.70;99.90;;;;;;5072005;28;20023;-74
2022/09/21 12:50:43;;;;;;;6.10;3.83;;;12.70;99.90;;;;;;5073357;28;20024;-76
2022/09/21 12:53:17;;;;;;;7.25;5.13;;;12.70;99.90;;;;;;5073396;28;20105;-73
2022/09/21 12:56:00;;;;;;;8.65;5.32;;;12.80;99.90;;;;;;5073304;28;20115;-76
2022/09/21 12:58:57;;;;;;;20.35;8.15;;;12.90;99.90;;;;;;5073389;28;20036;-74
2022/09/21 13:01:51;;;;;;;4.38;3.70;;;12.90;99.90;;;;;;5073193;28;20082;-73
2022/09/21 13:04:48;;;;;;;3.85;3.55;;;12.70;99.90;;;;;;5073205;28;20490;-76
2022/09/21 13:07:37;;;;;;;6.05;3.95;;;12.70;99.90;;;;;;5071792;28;20074;-74
2022/09/21 13:10:27;;;;;;;6.55;4.20;;;12.80;99.90;;;;;;5092845;28;20420;-74
2022/09/21 13:12:58;;;;;;;4.47;4.00;;;12.70;99.90;;;;;;5079411;28;20055;-77
2022/09/21 13:15:26;;;;;;;4.53;3.85;;;12.70;99.90;;;;;;5091946;28;20024;-77
2022/09/21 13:18:15;;;;;;;5.20;4.05;;;12.70;99.90;;;;;;5093171;28;20024;-74